Time;durP1;ratioP1;P1;durP2;ratioP2;P2;SDS_P1;SDS_P2;PMS_P1;PMS_P2;Temp;Humidity;BMP_temperature;BMP_pressure;BME280_temperature;BME280_humidity;BME280_pressure;Samples;Min_cycle;Max_cycle;Signal;HPM_P1;HPM_P2
2022/06/20 00:01:13;;;;;;;3.87;3.63;;;16.80;99.90;;;;;;4965341;28;20430;-89
2022/06/20 00:03:41;;;;;;;4.10;3.97;;;16.10;99.90;;;;;;4959052;28;20450;-87
2022/06/20 00:06:13;;;;;;;4.37;3.90;;;16.10;99.90;;;;;;4979168;28;20212;-87
2022/06/20 00:08:38;;;;;;;3.80;3.70;;;16.20;99.90;;;;;;4946893;28;20439;-88
2022/06/20 00:11:04;;;;;;;3.63;3.40;;;15.50;99.90;;;;;;4967032;28;20421;-88
2022/06/20 00:13:34;;;;;;;3.10;2.90;;;16.00;99.90;;;;;;4959671;28;20548;-87
2022/06/20 00:16:01;;;;;;;3.40;3.30;;;15.80;99.90;;;;;;4977315;28;20186;-87
2022/06/20 00:18:31;;;;;;;3.97;3.67;;;16.00;99.90;;;;;;4979516;28;20449;-88
2022/06/20 00:20:57;;;;;;;3.23;3.00;;;16.20;99.90;;;;;;4993890;28;20600;-87
2022/06/20 00:23:23;;;;;;;3.53;3.43;;;16.30;99.90;;;;;;4978290;28;20451;-86
2022/06/20 00:25:49;;;;;;;3.50;3.40;;;16.20;99.90;;;;;;4985332;28;20483;-87
2022/06/20 00:28:16;;;;;;;3.50;3.43;;;16.30;99.90;;;;;;4983498;28;20972;-88
2022/06/20 00:30:42;;;;;;;3.30;3.10;;;16.30;99.90;;;;;;4963197;28;20438;-87
2022/06/20 00:33:13;;;;;;;3.37;3.37;;;16.30;99.90;;;;;;4964548;28;20496;-86
2022/06/20 00:35:39;;;;;;;3.33;3.20;;;16.30;99.90;;;;;;4957121;28;20446;-87
2022/06/20 00:38:11;;;;;;;3.33;3.03;;;16.10;99.90;;;;;;4952678;28;20815;-87
2022/06/20 00:40:43;;;;;;;3.27;3.17;;;16.00;99.90;;;;;;4941155;28;20854;-86
2022/06/20 00:43:13;;;;;;;3.57;3.30;;;16.10;99.90;;;;;;4967302;28;20437;-87
2022/06/20 00:45:41;;;;;;;4.30;4.10;;;15.90;99.90;;;;;;4975195;28;20465;-87
2022/06/20 00:48:14;;;;;;;3.20;3.10;;;16.10;99.90;;;;;;4972776;28;20468;-89
2022/06/20 00:50:40;;;;;;;3.57;3.37;;;16.10;99.90;;;;;;4942806;29;20428;-88
2022/06/20 00:53:21;;;;;;;3.27;3.17;;;16.20;99.90;;;;;;4970979;28;20520;-88
2022/06/20 00:55:54;;;;;;;2.90;2.80;;;15.70;99.90;;;;;;4945228;29;20188;-88
2022/06/20 00:58:51;;;;;;;4.53;3.50;;;15.80;99.90;;;;;;4967213;28;20429;-86
2022/06/20 01:01:20;;;;;;;4.97;3.33;;;16.20;99.90;;;;;;4956554;28;20460;-88
2022/06/20 01:03:55;;;;;;;2.77;2.67;;;16.50;99.90;;;;;;4959039;28;20454;-86
2022/06/20 01:06:33;;;;;;;5.87;3.60;;;16.20;99.90;;;;;;4953206;29;20520;-88
2022/06/20 01:09:05;;;;;;;3.13;3.03;;;17.00;99.90;;;;;;4983753;28;20457;-87
2022/06/20 01:11:47;;;;;;;2.90;2.70;;;16.10;99.90;;;;;;4972629;28;20433;-87
2022/06/20 01:14:23;;;;;;;3.00;2.60;;;16.40;99.90;;;;;;4951832;28;20446;-86
2022/06/20 01:16:52;;;;;;;3.33;3.13;;;16.00;99.90;;;;;;4978057;28;20559;-87
2022/06/20 01:19:33;;;;;;;4.67;4.27;;;16.10;99.90;;;;;;4952212;28;20469;-87
2022/06/20 01:22:08;;;;;;;3.87;3.67;;;16.40;99.90;;;;;;4988107;28;20462;-87
2022/06/20 01:24:47;;;;;;;4.13;3.60;;;17.00;99.90;;;;;;4943763;28;20836;-87
2022/06/20 01:27:16;;;;;;;3.90;3.70;;;17.00;99.90;;;;;;4954547;28;20848;-87
2022/06/20 01:29:42;;;;;;;5.00;4.30;;;16.20;99.90;;;;;;4970113;28;20679;-88
2022/06/20 01:32:08;;;;;;;4.90;4.50;;;16.00;99.90;;;;;;4951935;28;20422;-87
2022/06/20 01:34:34;;;;;;;5.20;4.80;;;15.90;99.90;;;;;;4957679;28;20605;-88
2022/06/20 01:37:25;;;;;;;4.90;4.47;;;15.70;99.90;;;;;;4962290;28;20218;-88
2022/06/20 01:39:54;;;;;;;5.63;4.30;;;15.90;99.90;;;;;;4936900;29;20466;-88
2022/06/20 01:42:21;;;;;;;5.10;4.80;;;15.60;99.90;;;;;;4975538;28;20847;-87
2022/06/20 01:45:57;;;;;;;4.70;4.40;;;15.90;99.90;;;;;;4989122;28;20491;-88
2022/06/20 01:48:03;;;;;;;5.53;5.13;;;15.60;99.90;;;;;;4951801;28;20453;-88
2022/06/20 01:50:29;;;;;;;5.00;4.80;;;15.10;99.90;;;;;;4942378;28;20739;-87
2022/06/20 01:52:55;;;;;;;4.80;4.50;;;15.20;99.90;;;;;;4970526;28;20445;-88
2022/06/20 01:55:24;;;;;;;5.33;4.80;;;15.00;99.90;;;;;;4970097;28;20501;-88
2022/06/20 01:57:54;;;;;;;6.07;5.47;;;15.10;99.90;;;;;;4971224;28;20193;-88
2022/06/20 02:00:23;;;;;;;6.07;5.80;;;15.00;99.90;;;;;;4944855;28;20489;-88
2022/06/20 02:02:58;;;;;;;6.50;6.00;;;15.10;99.90;;;;;;4958042;28;20445;-88
2022/06/20 02:05:27;;;;;;;6.00;4.97;;;14.90;99.90;;;;;;4947563;28;20482;-88
2022/06/20 02:07:57;;;;;;;5.13;4.93;;;14.90;99.90;;;;;;4967146;28;20515;-88
2022/06/20 02:10:28;;;;;;;5.83;5.53;;;15.10;99.90;;;;;;4955464;28;20442;-89
2022/06/20 02:13:01;;;;;;;5.13;4.87;;;15.10;99.90;;;;;;4949110;28;20500;-89
2022/06/20 02:15:30;;;;;;;5.90;5.70;;;15.10;99.90;;;;;;4972780;28;20489;-89
2022/06/20 02:17:59;;;;;;;5.57;5.30;;;15.10;99.90;;;;;;4968757;28;20440;-89
2022/06/20 02:20:30;;;;;;;7.00;5.93;;;14.90;99.90;;;;;;4947581;28;20411;-89
2022/06/20 02:22:58;;;;;;;5.77;5.40;;;15.00;99.90;;;;;;4968209;28;20438;-88
2022/06/20 02:25:30;;;;;;;5.53;5.20;;;15.20;99.90;;;;;;4940202;28;20953;-88
2022/06/20 02:28:06;;;;;;;6.13;5.63;;;15.20;99.90;;;;;;4959167;28;20572;-89
2022/06/20 02:30:31;;;;;;;6.40;6.00;;;15.40;99.90;;;;;;4957236;28;20468;-89
2022/06/20 02:33:17;;;;;;;7.70;6.07;;;14.70;99.90;;;;;;4965999;28;20484;-89
2022/06/20 02:35:44;;;;;;;6.90;6.43;;;14.80;99.90;;;;;;4961562;28;20844;-89
2022/06/20 02:38:10;;;;;;;7.17;6.67;;;14.70;99.90;;;;;;4946176;28;20449;-87
2022/06/20 02:40:41;;;;;;;8.50;6.23;;;14.70;99.90;;;;;;4958243;28;20480;-88
2022/06/20 02:43:26;;;;;;;6.50;6.03;;;14.60;99.90;;;;;;4946127;28;20441;-87
2022/06/20 02:45:55;;;;;;;8.03;7.33;;;14.60;99.90;;;;;;4918015;29;20475;-89
2022/06/20 02:48:23;;;;;;;8.00;7.50;;;14.40;99.90;;;;;;4954085;28;20495;-88
2022/06/20 02:50:52;;;;;;;8.43;7.63;;;;;;;;;;4948300;29;20666;-88
2022/06/20 02:53:39;;;;;;;9.07;8.27;;;14.40;99.90;;;;;;4957561;28;20453;-87
2022/06/20 02:56:08;;;;;;;9.00;8.30;;;14.40;99.90;;;;;;4924977;29;20434;-89
2022/06/20 02:58:38;;;;;;;8.20;7.67;;;14.20;99.90;;;;;;4958355;28;20426;-90
2022/06/20 03:01:35;;;;;;;9.00;8.40;;;14.20;99.90;;;;;;4954847;28;20431;-88
2022/06/20 03:04:03;;;;;;;9.83;9.13;;;14.50;99.90;;;;;;4922227;29;20444;-88
2022/06/20 03:06:42;;;;;;;10.13;9.40;;;14.00;99.90;;;;;;4961374;28;20525;-88
2022/06/20 03:09:17;;;;;;;10.47;9.47;;;14.40;99.90;;;;;;4947359;29;20449;-89
2022/06/20 03:11:43;;;;;;;10.13;9.13;;;14.00;99.90;;;;;;4932872;29;20481;-89
2022/06/20 03:14:13;;;;;;;9.40;8.60;;;14.00;99.90;;;;;;4935559;29;20462;-89
2022/06/20 03:16:42;;;;;;;8.53;7.83;;;13.90;99.90;;;;;;4946659;29;20536;-88
2022/06/20 03:19:22;;;;;;;8.40;7.80;;;13.90;99.90;;;;;;4933740;29;20988;-89
2022/06/20 03:21:48;;;;;;;7.90;7.10;;;14.00;99.90;;;;;;4943414;29;20446;-89
2022/06/20 03:24:17;;;;;;;7.77;6.57;;;14.00;99.90;;;;;;4952302;28;20450;-88
2022/06/20 03:26:43;;;;;;;7.23;6.63;;;14.10;99.90;;;;;;4969702;28;20557;-87
2022/06/20 03:29:15;;;;;;;7.07;6.67;;;14.00;99.90;;;;;;4940089;29;20492;-88
2022/06/20 03:31:44;;;;;;;7.73;7.07;;;14.00;99.90;;;;;;4930706;29;20493;-88
2022/06/20 03:34:11;;;;;;;6.33;5.73;;;13.90;99.90;;;;;;4941297;29;20434;-90
2022/06/20 03:36:39;;;;;;;6.60;6.20;;;13.90;99.90;;;;;;4959068;28;20709;-89
2022/06/20 03:39:05;;;;;;;7.13;5.67;;;13.90;99.90;;;;;;4963750;28;20447;-89
2022/06/20 03:41:31;;;;;;;5.97;5.40;;;13.90;99.90;;;;;;4964327;28;20454;-89
2022/06/20 03:44:03;;;;;;;6.57;5.70;;;13.80;99.90;;;;;;4958918;28;20537;-90
2022/06/20 03:46:35;;;;;;;8.50;5.87;;;13.90;99.90;;;;;;4952939;28;20488;-90
2022/06/20 03:49:25;;;;;;;5.87;5.47;;;14.10;99.90;;;;;;4958319;28;20434;-89
2022/06/20 03:52:14;;;;;;;9.13;5.93;;;14.10;99.90;;;;;;4946310;28;20486;-90
2022/06/20 03:54:58;;;;;;;5.00;4.67;;;13.10;99.90;;;;;;4951596;28;20430;-88
2022/06/20 03:57:38;;;;;;;7.50;4.40;;;14.00;99.90;;;;;;4955093;28;20456;-88
2022/06/20 04:00:08;;;;;;;4.23;4.10;;;14.20;99.90;;;;;;4965957;28;21094;-89
2022/06/20 04:02:41;;;;;;;6.80;4.30;;;14.20;99.90;;;;;;4966332;28;20426;-88
2022/06/20 04:05:24;;;;;;;5.93;4.43;;;14.10;99.90;;;;;;4945302;29;20484;-89
2022/06/20 04:07:57;;;;;;;5.27;4.80;;;14.20;99.90;;;;;;4946824;29;20524;-89
2022/06/20 04:11:03;;;;;;;4.07;3.77;;;14.10;99.90;;;;;;4957809;28;20425;-88
2022/06/20 04:13:42;;;;;;;4.37;4.07;;;14.90;99.90;;;;;;4941468;28;20430;-89
2022/06/20 04:16:39;;;;;;;6.40;4.13;;;14.40;99.90;;;;;;4947989;28;20849;-89
2022/06/20 04:19:21;;;;;;;4.27;3.67;;;14.50;99.90;;;;;;4961939;28;20763;-89
2022/06/20 04:21:55;;;;;;;4.47;4.03;;;14.60;99.90;;;;;;4962835;28;20446;-88
2022/06/20 04:24:32;;;;;;;4.17;3.77;;;14.90;99.90;;;;;;4956002;28;20531;-89
2022/06/20 04:27:11;;;;;;;4.17;3.63;;;14.70;99.90;;;;;;4952617;28;20843;-88
2022/06/20 04:29:48;;;;;;;4.37;3.97;;;14.60;99.90;;;;;;4959015;28;20442;-89
2022/06/20 04:32:38;;;;;;;7.77;3.80;;;14.90;99.90;;;;;;4932805;29;20442;-88
2022/06/20 04:35:18;;;;;;;5.50;4.10;;;14.80;99.90;;;;;;4968106;28;20418;-88
2022/06/20 04:37:51;;;;;;;4.27;4.03;;;15.00;99.90;;;;;;4950068;28;20465;-89
2022/06/20 04:40:26;;;;;;;4.77;4.27;;;14.90;99.90;;;;;;4969386;28;20505;-90
2022/06/20 04:43:01;;;;;;;7.43;5.23;;;14.90;99.90;;;;;;4943818;28;20947;-89
2022/06/20 04:45:44;;;;;;;5.43;4.97;;;15.00;99.90;;;;;;4976784;28;20469;-91
2022/06/20 04:48:12;;;;;;;5.47;4.97;;;15.10;99.90;;;;;;4938391;28;20462;-90
2022/06/20 04:50:41;;;;;;;6.80;4.87;;;14.90;99.90;;;;;;4978171;28;20430;-91
2022/06/20 04:53:12;;;;;;;5.97;4.20;;;14.70;99.90;;;;;;4952564;28;20494;-88
2022/06/20 04:55:45;;;;;;;6.63;5.40;;;14.60;99.90;;;;;;4945821;28;20460;-91
2022/06/20 04:58:14;;;;;;;4.77;4.43;;;14.50;99.90;;;;;;4955249;28;20423;-89
2022/06/20 05:00:43;;;;;;;5.60;5.00;;;14.60;99.90;;;;;;4965771;28;20442;-88
2022/06/20 05:03:13;;;;;;;6.10;5.13;;;14.60;99.90;;;;;;4949248;28;20416;-90
2022/06/20 05:05:43;;;;;;;4.63;4.37;;;14.50;99.90;;;;;;4972279;28;20476;-89
2022/06/20 05:08:12;;;;;;;4.93;4.63;;;14.70;99.90;;;;;;4972562;28;20480;-86
2022/06/20 05:10:47;;;;;;;5.10;4.60;;;14.70;99.90;;;;;;4959706;28;20526;-88
2022/06/20 05:13:32;;;;;;;6.77;6.37;;;14.50;99.90;;;;;;4962561;28;20410;-89
2022/06/20 05:15:59;;;;;;;6.00;5.50;;;15.00;99.90;;;;;;4948557;28;20488;-89
2022/06/20 05:18:35;;;;;;;6.40;6.00;;;14.50;99.90;;;;;;4954309;28;20415;-89
2022/06/20 05:21:12;;;;;;;10.20;5.57;;;14.70;99.90;;;;;;4943612;28;20449;-89
2022/06/20 05:23:42;;;;;;;6.00;4.23;;;14.50;99.90;;;;;;4966592;28;20437;-90
2022/06/20 05:26:14;;;;;;;6.50;5.03;;;14.20;99.90;;;;;;4959815;28;20510;-89
2022/06/20 05:28:41;;;;;;;14.30;4.63;;;14.50;99.90;;;;;;4951788;28;20418;-89
2022/06/20 05:31:07;;;;;;;7.30;5.80;;;14.60;99.90;;;;;;4964306;28;20522;-89
2022/06/20 05:33:41;;;;;;;6.43;4.17;;;14.60;99.90;;;;;;4948992;28;21040;-89
2022/06/20 05:36:12;;;;;;;8.90;5.47;;;14.20;99.90;;;;;;4965515;28;20271;-89
2022/06/20 05:38:51;;;;;;;5.47;4.97;;;14.30;99.90;;;;;;4932921;29;20958;-90
2022/06/20 05:41:17;;;;;;;10.57;5.07;;;14.40;99.90;;;;;;4960632;28;20444;-87
2022/06/20 05:43:43;;;;;;;6.20;5.30;;;14.30;99.90;;;;;;4936879;29;20475;-90
2022/06/20 05:46:38;;;;;;;9.20;5.80;;;14.30;99.90;;;;;;4953117;29;20530;-90
2022/06/20 05:49:10;;;;;;;6.03;5.47;;;14.20;99.90;;;;;;4935287;29;20465;-89
2022/06/20 05:51:38;;;;;;;6.03;5.30;;;14.30;99.90;;;;;;4947879;29;20435;-88
2022/06/20 05:54:18;;;;;;;10.40;7.23;;;14.30;99.90;;;;;;4990324;28;20417;-89
2022/06/20 05:57:00;;;;;;;9.20;6.50;;;14.40;99.90;;;;;;4972104;29;20433;-89
2022/06/20 05:59:53;;;;;;;8.70;6.30;;;14.90;99.90;;;;;;4954420;29;20429;-87
2022/06/20 06:02:59;;;;;;;;;;;;;;;;;;;;;
2022/06/20 06:19:45;;;;;;;8.00;6.20;;;14.50;99.90;;;;;;5238087;22;20468;-90
2022/06/20 06:22:53;;;;;;;9.40;7.20;;;14.40;99.90;;;;;;4996637;28;20731;-92
2022/06/20 06:25:32;;;;;;;9.67;7.43;;;14.40;99.90;;;;;;4997016;28;20482;-91
2022/06/20 06:28:14;;;;;;;7.87;6.60;;;14.30;99.90;;;;;;4659226;28;10000241;-88
2022/06/20 06:31:28;;;;;;;7.93;7.33;;;14.40;99.90;;;;;;4993996;28;20177;-88
2022/06/20 06:37:22;;;;;;;15.80;7.93;;;14.60;99.90;;;;;;5479441;22;20854;-90
2022/06/20 06:40:13;;;;;;;7.13;6.50;;;;;;;;;;5047965;22;20488;-89
2022/06/20 06:42:47;;;;;;;11.20;6.47;;;14.70;99.90;;;;;;4974553;28;20415;-89
2022/06/20 06:45:24;;;;;;;10.23;7.50;;;14.60;99.90;;;;;;4993404;28;20538;-92
2022/06/20 06:51:22;;;;;;;7.80;5.80;;;14.80;99.90;;;;;;4978650;23;20498;-92
2022/06/20 07:05:37;;;;;;;9.50;5.93;;;15.20;99.90;;;;;;5724462;22;20504;-91
2022/06/20 07:08:11;;;;;;;8.73;6.20;;;15.20;99.90;;;;;;4975398;28;20428;-88
2022/06/20 07:13:46;;;;;;;10.73;5.43;;;15.10;99.90;;;;;;5426765;22;20492;-89
2022/06/20 07:16:36;;;;;;;6.23;5.63;;;15.70;99.90;;;;;;5175627;22;20486;-89
2022/06/20 07:19:20;;;;;;;5.60;5.07;;;15.10;99.90;;;;;;4975553;28;20437;-89
2022/06/20 07:21:53;;;;;;;5.97;4.50;;;15.20;99.90;;;;;;4996996;28;20468;-89
2022/06/20 07:24:56;;;;;;;6.50;5.40;;;15.30;99.90;;;;;;4992568;28;20444;-88
2022/06/20 07:27:47;;;;;;;6.20;5.40;;;15.40;99.90;;;;;;5026145;28;20478;-91
2022/06/20 07:35:30;;;;;;;8.90;5.43;;;15.60;99.90;;;;;;4991144;28;20479;-89
2022/06/20 07:38:06;;;;;;;6.03;5.03;;;15.90;99.90;;;;;;4987814;28;20451;-90
2022/06/20 07:40:41;;;;;;;4.93;4.40;;;16.20;99.90;;;;;;4984507;28;20440;-89
2022/06/20 07:43:43;;;;;;;8.63;5.03;;;17.20;99.90;;;;;;4981265;28;20851;-88
2022/06/20 07:46:32;;;;;;;8.40;4.57;;;17.40;99.90;;;;;;4974857;28;20500;-87
2022/06/20 07:49:04;;;;;;;4.90;4.47;;;16.90;99.90;;;;;;4963735;28;20446;-90
2022/06/20 07:51:40;;;;;;;15.20;5.63;;;17.10;99.90;;;;;;4994614;28;20756;-88
2022/06/20 07:54:15;;;;;;;7.37;4.70;;;17.00;99.90;;;;;;4989045;28;20448;-91
2022/06/20 07:56:46;;;;;;;5.50;3.63;;;17.90;99.90;;;;;;4973154;28;20490;-91
2022/06/20 07:59:30;;;;;;;4.60;3.60;;;18.50;99.90;;;;;;4981053;28;20539;-90
2022/06/20 08:02:06;;;;;;;7.17;4.83;;;;;;;;;;4974204;28;20428;-90
2022/06/20 08:04:34;;;;;;;5.03;3.80;;;21.00;99.90;;;;;;4982520;28;20468;-89
2022/06/20 08:07:21;;;;;;;5.00;3.50;;;21.60;99.90;;;;;;4995014;28;20467;-86
2022/06/20 08:10:02;;;;;;;4.43;3.73;;;21.90;99.90;;;;;;4969647;28;20447;-88
2022/06/20 08:12:51;;;;;;;4.10;3.77;;;21.70;99.90;;;;;;4977862;28;20479;-87
2022/06/20 08:15:46;;;;;;;4.63;4.33;;;22.00;99.90;;;;;;5001786;28;20527;-90
2022/06/20 08:18:12;;;;;;;5.40;4.67;;;21.00;99.90;;;;;;4975701;28;20448;-89
2022/06/20 08:20:47;;;;;;;6.87;5.70;;;22.20;99.90;;;;;;4978312;28;20477;-88
2022/06/20 08:23:23;;;;;;;6.23;5.70;;;22.00;99.90;;;;;;4994272;28;20427;-89
2022/06/20 08:26:07;;;;;;;4.07;3.87;;;22.40;99.90;;;;;;4977360;28;20474;-91
2022/06/20 08:28:51;;;;;;;6.83;4.53;;;22.20;99.90;;;;;;4965465;28;20417;-89
2022/06/20 08:31:30;;;;;;;5.27;4.67;;;22.90;99.90;;;;;;4980936;28;20805;-87
2022/06/20 08:34:10;;;;;;;4.83;4.40;;;22.80;99.90;;;;;;4991110;28;20421;-89
2022/06/20 08:36:41;;;;;;;5.80;4.73;;;23.00;99.90;;;;;;4980385;28;20417;-89
2022/06/20 08:39:28;;;;;;;5.23;4.80;;;21.80;99.90;;;;;;4974730;28;20888;-90
2022/06/20 08:42:00;;;;;;;5.77;5.23;;;21.80;99.90;;;;;;4976004;28;20428;-90
2022/06/20 08:44:59;;;;;;;4.53;4.23;;;22.40;99.90;;;;;;4979127;28;20445;-87
2022/06/20 08:48:08;;;;;;;4.90;3.67;;;22.40;98.10;;;;;;4996684;28;20841;-88
2022/06/20 08:51:07;;;;;;;4.93;4.63;;;22.10;99.90;;;;;;4586828;28;10000074;-88
2022/06/20 08:54:15;;;;;;;3.67;2.80;;;21.60;99.90;;;;;;4973272;28;20233;-89
2022/06/20 08:57:00;;;;;;;2.50;2.30;;;22.60;99.90;;;;;;4966685;28;20436;-87
2022/06/20 08:59:59;;;;;;;3.30;3.00;;;23.30;99.90;;;;;;4976289;28;20431;-89
2022/06/20 09:03:05;;;;;;;2.67;2.47;;;22.50;98.60;;;;;;4992460;28;20502;-91
2022/06/20 09:05:49;;;;;;;2.90;2.70;;;22.30;97.20;;;;;;4976159;28;21083;-91
2022/06/20 09:08:30;;;;;;;1.97;1.87;;;23.20;94.70;;;;;;4976492;28;20436;-89
2022/06/20 09:11:20;;;;;;;1.80;1.70;;;24.20;92.40;;;;;;4982382;28;20443;-91
2022/06/20 09:14:02;;;;;;;2.90;2.17;;;25.70;85.10;;;;;;4988761;28;20436;-89
2022/06/20 09:16:56;;;;;;;2.10;1.60;;;27.00;82.60;;;;;;4981694;28;20587;-91
2022/06/20 09:19:37;;;;;;;1.80;1.70;;;28.00;74.00;;;;;;4986601;28;20455;-89
2022/06/20 09:22:17;;;;;;;1.60;1.50;;;26.60;71.00;;;;;;4965865;28;21003;-88
2022/06/20 09:25:02;;;;;;;1.80;1.70;;;25.60;68.80;;;;;;4989039;28;20464;-88
2022/06/20 09:28:07;;;;;;;1.87;1.77;;;24.40;70.90;;;;;;4979002;28;20452;-89
2022/06/20 09:30:50;;;;;;;2.50;1.65;;;24.10;77.50;;;;;;4954707;28;20435;-87
2022/06/20 09:33:49;;;;;;;2.20;2.10;;;24.00;73.80;;;;;;4974583;28;20214;-90
2022/06/20 09:37:03;;;;;;;2.53;1.57;;;23.70;74.20;;;;;;4980103;28;20452;-91
2022/06/20 09:39:41;;;;;;;2.30;2.10;;;23.70;75.30;;;;;;4889880;29;20454;-88
2022/06/20 09:43:05;;;;;;;2.50;1.90;;;24.00;74.50;;;;;;4906068;28;20507;-89
2022/06/20 09:45:44;;;;;;;2.00;1.80;;;24.70;76.80;;;;;;4925645;29;20500;-89
2022/06/20 09:48:16;;;;;;;1.87;1.77;;;25.60;72.60;;;;;;4980412;28;20448;-90
2022/06/20 09:50:59;;;;;;;9.53;2.80;;;;;;;;;;4973662;28;20977;-90
2022/06/20 09:53:56;;;;;;;2.23;1.60;;;27.10;66.00;;;;;;4996080;28;20439;-89
2022/06/20 09:56:58;;;;;;;;;;;;;;;;;;;;;
2022/06/20 09:59:50;;;;;;;2.00;1.67;;;29.70;62.30;;;;;;4997326;28;20857;-90
2022/06/20 10:02:34;;;;;;;2.70;1.57;;;30.00;58.80;;;;;;4981579;28;20418;-87
2022/06/20 10:05:24;;;;;;;2.00;1.90;;;29.30;57.30;;;;;;4974982;28;20546;-88
2022/06/20 10:08:14;;;;;;;1.93;1.80;;;28.10;58.30;;;;;;4994025;28;20425;-87
2022/06/20 10:11:06;;;;;;;6.30;2.67;;;27.30;59.50;;;;;;4978314;28;20860;-89
2022/06/20 10:13:55;;;;;;;1.70;1.60;;;26.80;58.60;;;;;;4979785;28;20475;-90
2022/06/20 10:16:41;;;;;;;3.47;2.10;;;26.90;57.20;;;;;;4985774;28;20425;-88
2022/06/20 10:19:38;;;;;;;2.60;2.17;;;26.80;58.30;;;;;;4980903;28;20450;-89
2022/06/20 10:25:24;;;;;;;2.07;1.97;;;25.20;63.70;;;;;;5099297;22;20492;-90
2022/06/20 10:27:57;;;;;;;1.50;1.50;;;25.10;62.30;;;;;;4993375;28;21114;-89
2022/06/20 10:30:45;;;;;;;4.00;1.90;;;24.50;65.10;;;;;;4989293;28;20927;-89
2022/06/20 10:33:30;;;;;;;1.93;1.70;;;24.80;60.00;;;;;;4988406;28;20469;-90
2022/06/20 10:36:31;;;;;;;2.30;2.10;;;24.50;63.40;;;;;;5004591;28;20427;-87
2022/06/20 10:39:19;;;;;;;1.80;1.80;;;24.20;60.00;;;;;;4987948;28;20933;-90
2022/06/20 10:42:09;;;;;;;1.60;1.60;;;24.00;63.30;;;;;;4980361;28;20424;-91
2022/06/20 10:44:55;;;;;;;2.47;2.27;;;24.50;62.20;;;;;;4992185;28;20448;-90
2022/06/20 10:47:30;;;;;;;2.20;2.00;;;25.10;62.10;;;;;;4994439;28;20414;-89
2022/06/20 10:50:19;;;;;;;2.10;1.90;;;26.10;68.60;;;;;;4982537;28;20447;-90
2022/06/20 10:53:09;;;;;;;2.57;1.80;;;27.20;59.20;;;;;;4959211;28;20440;-90
2022/06/20 10:55:44;;;;;;;3.30;2.20;;;28.10;58.40;;;;;;4962521;28;20458;-88
2022/06/20 10:58:23;;;;;;;1.60;1.50;;;27.80;56.40;;;;;;4978221;28;20472;-88
2022/06/20 11:01:01;;;;;;;1.80;1.80;;;28.80;56.00;;;;;;4967362;28;20523;-91
2022/06/20 11:04:01;;;;;;;2.03;1.93;;;29.30;57.50;;;;;;4974358;28;20575;-88
2022/06/20 11:06:50;;;;;;;2.13;2.03;;;29.10;56.20;;;;;;4961717;28;20562;-89
2022/06/20 11:09:46;;;;;;;2.43;2.43;;;28.40;57.10;;;;;;4962678;28;20605;-90
2022/06/20 11:12:20;;;;;;;2.57;2.40;;;28.10;56.30;;;;;;4977594;28;20954;-89
2022/06/20 11:14:56;;;;;;;2.87;2.77;;;26.50;56.90;;;;;;4971809;28;20432;-89
2022/06/20 11:17:51;;;;;;;2.23;2.03;;;26.70;55.40;;;;;;5003825;28;20443;-89
2022/06/20 11:20:20;;;;;;;1.97;1.80;;;26.60;55.20;;;;;;4958101;28;20448;-89
2022/06/20 11:23:00;;;;;;;2.10;1.93;;;26.90;56.70;;;;;;4980597;28;20958;-88
2022/06/20 11:25:59;;;;;;;2.93;2.10;;;28.70;58.60;;;;;;4963863;28;20480;-90
2022/06/20 11:28:47;;;;;;;2.23;2.23;;;29.00;55.50;;;;;;4964725;28;20437;-87
2022/06/20 11:31:29;;;;;;;2.50;2.40;;;28.40;55.90;;;;;;5000551;28;20432;-90
2022/06/20 11:34:46;;;;;;;3.93;3.10;;;28.70;55.80;;;;;;5001124;28;20985;-86
2022/06/20 11:37:33;;;;;;;2.40;2.30;;;28.20;57.00;;;;;;4979649;28;20455;-85
2022/06/20 11:40:23;;;;;;;2.77;2.60;;;27.80;55.80;;;;;;4991354;28;20547;-86
2022/06/20 11:43:21;;;;;;;2.40;2.30;;;27.70;54.00;;;;;;4985939;28;20442;-86
2022/06/20 11:45:59;;;;;;;3.77;2.73;;;28.00;54.00;;;;;;4984108;28;20484;-85
2022/06/20 11:48:50;;;;;;;2.53;2.10;;;28.10;55.80;;;;;;4968766;28;20480;-85
2022/06/20 11:51:59;;;;;;;2.70;2.60;;;26.90;53.40;;;;;;4978461;28;20524;-89
2022/06/20 11:54:51;;;;;;;2.70;2.60;;;26.20;54.10;;;;;;4975466;28;20536;-87
2022/06/20 11:57:30;;;;;;;4.73;2.50;;;26.70;54.10;;;;;;4996758;28;20443;-86
2022/06/20 12:00:09;;;;;;;3.83;3.53;;;27.00;53.90;;;;;;4974750;28;20429;-86
2022/06/20 12:02:41;;;;;;;2.20;2.10;;;26.80;55.10;;;;;;4981487;28;20982;-87
2022/06/20 12:05:06;;;;;;;2.87;2.67;;;27.60;57.50;;;;;;4994614;28;20478;-86
2022/06/20 12:07:40;;;;;;;2.70;2.60;;;26.60;58.10;;;;;;4994972;28;20428;-87
2022/06/20 12:10:29;;;;;;;3.40;3.30;;;27.50;58.20;;;;;;4961080;28;20200;-87
2022/06/20 12:13:19;;;;;;;5.63;3.40;;;26.70;54.50;;;;;;4976169;28;20420;-89
2022/06/20 12:15:53;;;;;;;3.43;3.33;;;27.40;53.50;;;;;;4981768;28;20449;-87
2022/06/20 12:18:35;;;;;;;3.47;3.27;;;28.20;52.90;;;;;;4975594;28;20432;-90
2022/06/20 12:24:03;;;;;;;3.37;3.17;;;28.70;53.20;;;;;;4990699;28;20510;-88
2022/06/20 12:26:33;;;;;;;2.83;2.83;;;28.30;53.00;;;;;;4976067;28;20465;-90
2022/06/20 12:29:15;;;;;;;3.20;2.90;;;29.00;54.10;;;;;;5001008;28;20432;-86
2022/06/20 12:32:21;;;;;;;3.50;3.20;;;28.60;53.60;;;;;;4975197;28;20424;-89
2022/06/20 12:35:20;;;;;;;3.73;3.60;;;27.30;52.20;;;;;;4991338;28;20424;-88
2022/06/20 12:38:48;;;;;;;;;;;;;;;;;;;;;
2022/06/20 12:41:30;;;;;;;3.20;2.83;;;25.80;53.40;;;;;;5006587;22;20559;-89
2022/06/20 12:44:19;;;;;;;3.40;3.30;;;26.00;56.50;;;;;;4982327;28;20448;-90
2022/06/20 12:47:10;;;;;;;4.23;3.07;;;27.60;51.90;;;;;;4987331;28;20477;-90
2022/06/20 12:49:54;;;;;;;3.03;2.70;;;28.50;52.50;;;;;;4991053;28;20438;-91
2022/06/20 12:52:49;;;;;;;3.20;2.90;;;29.60;55.00;;;;;;4983046;28;20432;-90
2022/06/20 12:55:27;;;;;;;3.30;3.10;;;30.00;54.30;;;;;;4959588;28;20467;-90
2022/06/20 12:58:13;;;;;;;5.23;3.30;;;29.80;55.60;;;;;;4981372;28;20570;-90
2022/06/20 13:01:14;;;;;;;3.57;2.57;;;28.20;56.30;;;;;;4979106;28;20484;-87
2022/06/20 13:04:17;;;;;;;4.93;2.20;;;27.70;58.80;;;;;;4957867;28;20488;-88
2022/06/20 13:07:04;;;;;;;2.43;2.23;;;28.20;57.50;;;;;;4612472;28;9999901;-89
2022/06/20 13:10:04;;;;;;;3.00;2.90;;;28.70;56.60;;;;;;4960363;28;20224;-90
2022/06/20 13:12:45;;;;;;;2.80;2.60;;;28.10;55.90;;;;;;4958069;28;20515;-88
2022/06/20 13:15:43;;;;;;;2.50;2.50;;;28.40;57.20;;;;;;4953475;28;20461;-91
2022/06/20 13:18:10;;;;;;;2.87;2.73;;;;;;;;;;4954432;28;20444;-88
2022/06/20 13:21:17;;;;;;;2.70;2.60;;;26.30;58.70;;;;;;4960773;28;20440;-86
2022/06/20 13:24:13;;;;;;;3.30;3.20;;;25.70;60.40;;;;;;4979361;28;20530;-85
2022/06/20 13:27:18;;;;;;;2.93;2.80;;;25.30;58.80;;;;;;4958588;28;20492;-89
2022/06/20 13:30:12;;;;;;;3.30;3.20;;;25.80;61.70;;;;;;4932931;28;20460;-90
2022/06/20 13:32:47;;;;;;;5.10;2.60;;;26.60;58.10;;;;;;4958318;28;20516;-90
2022/06/20 13:35:34;;;;;;;2.60;2.40;;;26.90;61.90;;;;;;4981851;28;20431;-88
2022/06/20 13:38:17;;;;;;;3.20;3.10;;;28.10;58.80;;;;;;4968200;28;20464;-91
2022/06/20 13:41:06;;;;;;;3.17;2.87;;;28.60;57.50;;;;;;4986075;28;20884;-89
2022/06/20 13:44:00;;;;;;;4.77;3.33;;;28.30;56.80;;;;;;4962185;28;20437;-88
2022/06/20 13:47:13;;;;;;;3.37;3.10;;;27.40;57.50;;;;;;4986170;28;20460;-89
2022/06/20 13:52:46;;;;;;;;;;;;;;;;;;;;;
2022/06/20 13:55:43;;;;;;;3.60;3.40;;;28.30;55.30;;;;;;4983493;28;20527;-89
2022/06/20 13:58:23;;;;;;;3.87;3.50;;;28.20;54.90;;;;;;4967636;28;20477;-87
2022/06/20 14:01:04;;;;;;;3.53;3.13;;;27.50;57.90;;;;;;4994510;28;20520;-91
2022/06/20 14:03:38;;;;;;;3.30;3.10;;;27.10;58.50;;;;;;4956930;29;20454;-89
2022/06/20 14:06:14;;;;;;;2.90;2.70;;;;;;;;;;4965790;28;20938;-91
2022/06/20 14:09:16;;;;;;;3.20;3.00;;;27.40;58.70;;;;;;4980365;28;20443;-90
2022/06/20 14:11:52;;;;;;;4.23;2.77;;;27.70;58.20;;;;;;4979821;28;20527;-89
2022/06/20 14:14:29;;;;;;;2.70;2.60;;;28.80;57.90;;;;;;4971906;28;20425;-92
2022/06/20 14:16:59;;;;;;;2.90;2.67;;;29.20;58.20;;;;;;4980884;28;20456;-89
2022/06/20 14:19:43;;;;;;;3.37;3.17;;;29.00;60.40;;;;;;4953873;28;20426;-88
2022/06/20 14:22:20;;;;;;;3.03;2.93;;;29.00;56.90;;;;;;4972091;28;20444;-86
2022/06/20 14:24:52;;;;;;;2.53;2.40;;;29.20;58.60;;;;;;4985204;28;20551;-87
2022/06/20 14:27:27;;;;;;;2.53;2.40;;;28.50;60.00;;;;;;4987499;28;20428;-87
2022/06/20 14:30:05;;;;;;;3.23;2.97;;;28.40;59.80;;;;;;4974258;28;20436;-86
2022/06/20 14:32:44;;;;;;;4.70;4.50;;;28.60;58.40;;;;;;5000056;28;20423;-86
2022/06/20 14:35:21;;;;;;;4.73;2.60;;;28.80;55.90;;;;;;4995660;28;20458;-88
2022/06/20 14:37:58;;;;;;;3.73;3.23;;;29.20;54.40;;;;;;5008954;28;20434;-88
2022/06/20 14:40:42;;;;;;;3.80;3.07;;;29.80;53.80;;;;;;4979662;28;20981;-86
2022/06/20 14:43:16;;;;;;;3.00;2.50;;;30.60;53.70;;;;;;4992938;28;20460;-84
2022/06/20 14:46:07;;;;;;;2.47;2.30;;;29.90;54.30;;;;;;4971479;28;20471;-88
2022/06/20 14:49:12;;;;;;;4.00;2.20;;;30.20;52.80;;;;;;4979150;28;20487;-86
2022/06/20 14:51:50;;;;;;;2.77;2.40;;;29.60;51.70;;;;;;4986626;28;20547;-86